Time;durP1;ratioP1;P1;durP2;ratioP2;P2;SDS_P1;SDS_P2;PMS_P1;PMS_P2;Temp;Humidity;BMP_temperature;BMP_pressure;BME280_temperature;BME280_humidity;BME280_pressure;Samples;Min_cycle;Max_cycle;Signal;HPM_P1;HPM_P2
2021/11/14 00:01:47;;;;;;;46.40;30.27;;;;;;;12.00;100.00;101985.09;5088908;28;20179;-73
2021/11/14 00:04:13;;;;;;;49.03;32.77;;;;;;;11.99;100.00;101978.13;5084359;28;20172;-79
2021/11/14 00:06:39;;;;;;;45.60;32.63;;;;;;;12.05;100.00;101983.94;5088268;28;20155;-78
2021/11/14 00:09:05;;;;;;;49.57;33.37;;;;;;;12.13;100.00;101987.00;5092128;28;20895;-79
2021/11/14 00:11:31;;;;;;;43.80;23.90;;;;;;;12.06;100.00;101982.16;5089068;28;20885;-71
2021/11/14 00:13:58;;;;;;;34.87;22.83;;;;;;;12.08;100.00;101988.19;5088566;28;20262;-69
2021/11/14 00:16:25;;;;;;;34.30;19.60;;;;;;;12.06;100.00;101982.16;5088152;28;20171;-71
2021/11/14 00:18:50;;;;;;;33.00;18.10;;;;;;;11.94;100.00;101981.88;5087602;28;20495;-70
2021/11/14 00:21:19;;;;;;;25.07;15.50;;;;;;;11.97;100.00;101987.91;5088307;28;20398;-70
2021/11/14 00:23:45;;;;;;;22.37;13.27;;;;;;;12.01;100.00;101976.25;5087397;28;20586;-69
2021/11/14 00:26:11;;;;;;;24.30;13.80;;;;;;;11.88;100.00;101982.19;5087264;28;20939;-69
2021/11/14 00:28:39;;;;;;;21.10;13.00;;;;;;;11.83;100.00;101978.94;5087547;28;20896;-81
2021/11/14 00:31:05;;;;;;;17.40;12.17;;;;;;;11.97;100.00;101980.00;5088720;28;20163;-82
2021/11/14 00:33:31;;;;;;;20.10;12.53;;;;;;;11.90;100.00;101982.09;5088527;28;20458;-73
2021/11/14 00:35:57;;;;;;;25.80;11.73;;;;;;;11.85;100.00;101973.59;5088349;28;20421;-79
2021/11/14 00:38:24;;;;;;;21.53;13.17;;;;;;;11.87;100.00;101969.97;5088666;28;20433;-80
2021/11/14 00:40:51;;;;;;;19.23;12.17;;;;;;;11.81;100.00;101972.91;5088924;28;20155;-73
2021/11/14 00:43:17;;;;;;;21.00;12.40;;;;;;;11.87;100.00;101964.69;5088778;28;20428;-77
2021/11/14 00:45:46;;;;;;;19.50;13.13;;;;;;;11.88;100.00;101971.66;5098158;28;20804;-79
2021/11/14 00:48:13;;;;;;;23.87;12.70;;;;;;;11.79;100.00;101974.75;5088747;28;20453;-77
2021/11/14 00:50:43;;;;;;;28.97;13.77;;;;;;;11.76;100.00;101972.25;5089335;28;20422;-81
2021/11/14 00:53:13;;;;;;;18.03;12.20;;;;;;;11.74;100.00;101970.63;5089042;28;20414;-80
2021/11/14 00:55:39;;;;;;;24.83;13.30;;;;;;;11.74;100.00;101968.00;5088788;28;20929;-80
2021/11/14 00:58:04;;;;;;;25.97;13.57;;;;;;;11.78;100.00;101970.38;5088740;28;20410;-79
2021/11/14 01:00:30;;;;;;;23.47;14.03;;;;;;;11.69;100.00;101970.88;5091437;28;20420;-81
2021/11/14 01:02:56;;;;;;;25.80;13.10;;;;;;;11.72;100.00;101975.13;5090600;28;20168;-81
2021/11/14 01:05:23;;;;;;;25.20;13.67;;;;;;;11.64;100.00;101968.50;5092181;28;20168;-81
2021/11/14 01:07:50;;;;;;;20.90;13.20;;;;;;;11.61;100.00;101973.03;5091795;28;20457;-77
2021/11/14 01:10:21;;;;;;;22.73;13.93;;;;;;;11.64;100.00;101968.50;5091571;28;20416;-78
2021/11/14 01:12:47;;;;;;;21.30;12.30;;;;;;;11.60;100.00;101964.28;5092299;28;20665;-79
2021/11/14 01:15:14;;;;;;;24.80;13.27;;;;;;;11.61;100.00;101962.50;5091641;28;20939;-81
2021/11/14 01:17:40;;;;;;;18.30;11.70;;;;;;;11.59;100.00;101972.28;5092145;28;20250;-81
2021/11/14 01:20:12;;;;;;;22.20;12.23;;;;;;;11.57;100.00;101972.34;5091777;28;20460;-81
2021/11/14 01:22:39;;;;;;;19.97;13.20;;;;;;;11.57;100.00;101960.97;5092512;28;20390;-79
2021/11/14 01:25:07;;;;;;;19.20;12.23;;;;;;;11.56;100.00;101967.16;5090547;28;20416;-69
2021/11/14 01:27:33;;;;;;;19.40;12.70;;;;;;;11.56;100.00;101969.78;5091823;28;20454;-81
2021/11/14 01:29:58;;;;;;;21.97;12.33;;;;;;;11.58;100.00;101965.31;5091955;28;20521;-74
2021/11/14 01:32:24;;;;;;;26.53;13.57;;;;;;;11.59;100.00;101964.38;5091134;28;20203;-78
2021/11/14 01:34:50;;;;;;;19.80;12.30;;;;;;;11.61;100.00;101958.09;5091945;28;20663;-74
2021/11/14 01:37:16;;;;;;;22.90;12.50;;;;;;;11.61;100.00;101962.50;5092385;28;20416;-75
2021/11/14 01:39:42;;;;;;;21.20;13.47;;;;;;;11.59;100.00;101959.97;5092605;28;20695;-79
2021/11/14 01:42:07;;;;;;;20.57;13.30;;;;;;;11.64;100.00;101963.22;5092732;28;20436;-77
2021/11/14 01:44:32;;;;;;;21.57;12.43;;;;;;;11.65;100.00;101953.53;5091723;28;20572;-74
2021/11/14 01:46:58;;;;;;;19.53;11.90;;;;;;;11.65;100.00;101951.75;5092196;28;20677;-76
2021/11/14 01:49:24;;;;;;;20.13;12.40;;;;;;;11.61;100.00;101962.50;5091627;28;20187;-68
2021/11/14 01:51:49;;;;;;;23.00;11.70;;;;;;;11.53;100.00;101964.69;5091592;28;20175;-71
2021/11/14 01:54:19;;;;;;;19.43;11.80;;;;;;;11.50;100.00;101967.50;5090160;28;20225;-79
2021/11/14 01:56:46;;;;;;;19.57;11.00;;;;;;;11.58;100.00;101967.94;5091176;28;20661;-78
2021/11/14 01:59:11;;;;;;;18.90;11.83;;;;;;;11.53;100.00;101964.69;5091089;28;20409;-71
2021/11/14 02:01:37;;;;;;;23.37;12.80;;;;;;;11.49;100.00;101963.16;5090773;28;21151;-71
2021/11/14 02:04:05;;;;;;;20.60;12.47;;;;;;;11.52;100.00;101968.25;5088586;28;20233;-70
2021/11/14 02:06:33;;;;;;;16.90;10.73;;;;;;;11.55;100.00;101975.97;5091316;28;20164;-69
2021/11/14 02:08:58;;;;;;;19.37;11.70;;;;;;;11.55;100.00;101971.56;5090964;28;21006;-70
2021/11/14 02:11:24;;;;;;;19.40;11.07;;;;;;;11.56;100.00;101967.16;5090603;28;20449;-81
2021/11/14 02:13:50;;;;;;;15.10;10.20;;;;;;;11.51;100.00;101963.91;5090687;28;20171;-80
2021/11/14 02:16:18;;;;;;;18.03;11.67;;;;;;;11.44;100.00;101966.00;5091229;28;20225;-78
2021/11/14 02:18:44;;;;;;;16.27;11.40;;;;;;;11.38;100.00;101961.91;5090882;28;20418;-77
2021/11/14 02:21:10;;;;;;;24.80;11.63;;;;;;;11.37;100.00;101965.47;5090752;28;21208;-81
2021/11/14 02:23:36;;;;;;;17.73;11.20;;;;;;;11.28;100.00;101970.34;5090336;28;20267;-78
2021/11/14 02:26:03;;;;;;;17.43;11.30;;;;;;;11.21;100.00;101963.69;5090990;28;20410;-70
2021/11/14 02:28:29;;;;;;;16.43;11.10;;;;;;;11.30;100.00;101969.31;5090400;28;20858;-76
2021/11/14 02:30:57;;;;;;;17.97;10.83;;;;;;;11.37;100.00;101969.88;5090983;28;20970;-78
2021/11/14 02:33:26;;;;;;;17.30;11.50;;;;;;;11.38;100.00;101964.53;5090262;28;20179;-81
2021/11/14 02:35:53;;;;;;;19.70;11.80;;;;;;;11.32;100.00;101964.84;5090632;28;20443;-72
2021/11/14 02:38:21;;;;;;;20.20;12.67;;;;;;;11.21;100.00;101975.06;5090204;28;20501;-69
2021/11/14 02:40:48;;;;;;;19.57;12.87;;;;;;;11.23;100.00;101961.81;5090741;28;20915;-72
2021/11/14 02:43:14;;;;;;;21.53;13.20;;;;;;;11.23;100.00;101965.28;5090369;28;20418;-78
2021/11/14 02:45:41;;;;;;;21.90;15.10;;;;;;;11.22;100.00;101968.00;5090908;28;20909;-70
2021/11/14 02:48:08;;;;;;;25.83;13.20;;;;;;;11.29;100.00;101969.41;5090355;28;20206;-73
2021/11/14 02:50:34;;;;;;;26.47;15.70;;;;;;;11.26;100.00;101967.78;5090312;28;20468;-68
2021/11/14 02:53:00;;;;;;;21.07;13.30;;;;;;;11.29;100.00;101969.41;5090223;28;20406;-70
2021/11/14 02:55:26;;;;;;;29.70;16.83;;;;;;;11.26;100.00;101965.16;5090765;28;20417;-81
2021/11/14 02:57:53;;;;;;;37.57;17.00;;;;;;;11.26;100.00;101961.66;5090138;28;20406;-74
2021/11/14 03:00:29;;;;;;;26.60;17.90;;;;;;;11.20;100.00;101962.84;5090178;28;20409;-74
2021/11/14 03:02:56;;;;;;;27.47;17.87;;;;;;;11.20;100.00;101961.97;5087512;28;20443;-73
2021/11/14 03:05:23;;;;;;;31.90;19.40;;;;;;;11.23;100.00;101962.66;5087490;28;20410;-70
2021/11/14 03:07:50;;;;;;;28.03;17.53;;;;;;;11.30;100.00;101961.44;5089828;28;20438;-74
2021/11/14 03:10:20;;;;;;;32.97;20.20;;;;;;;11.29;100.00;101954.47;5090283;28;20475;-68
2021/11/14 03:13:03;;;;;;;28.43;21.10;;;;;;;11.33;100.00;101960.41;5090216;28;20396;-70
2021/11/14 03:15:33;;;;;;;30.10;19.40;;;;;;;11.29;100.00;101962.38;5070240;28;20491;-80
2021/11/14 03:17:59;;;;;;;31.57;21.47;;;;;;;11.32;100.00;101964.84;5069556;28;20395;-80
2021/11/14 03:20:25;;;;;;;33.50;20.50;;;;;;;11.25;100.00;101957.31;5086483;28;20413;-69
2021/11/14 03:22:50;;;;;;;32.37;20.90;;;;;;;11.31;100.00;101963.13;5088771;28;20974;-68
2021/11/14 03:25:21;;;;;;;38.43;20.33;;;;;;;11.29;100.00;101956.25;5089534;28;20420;-71
2021/11/14 03:27:46;;;;;;;30.13;20.43;;;;;;;11.31;100.00;101955.25;5089568;28;20198;-70
2021/11/14 03:30:15;;;;;;;34.63;20.10;;;;;;;11.30;100.00;101957.97;5089452;28;20457;-70
2021/11/14 03:32:40;;;;;;;31.90;19.50;;;;;;;11.31;100.00;101960.50;5089639;28;20581;-71
2021/11/14 03:35:07;;;;;;;31.30;21.23;;;;;;;11.31;100.00;101957.88;5088729;28;20498;-73
2021/11/14 03:37:32;;;;;;;30.70;19.57;;;;;;;11.32;100.00;101959.56;5089769;28;20163;-75
2021/11/14 03:39:58;;;;;;;37.70;20.77;;;;;;;11.34;100.00;101955.09;5089437;28;20422;-70
2021/11/14 03:42:24;;;;;;;29.00;18.37;;;;;;;11.31;100.00;101954.38;5088901;28;20465;-80
2021/11/14 03:44:50;;;;;;;29.83;19.20;;;;;;;11.23;100.00;101956.56;5088942;28;20547;-76
2021/11/14 03:47:16;;;;;;;28.20;18.77;;;;;;;11.21;100.00;101954.00;5089629;28;20152;-78
2021/11/14 03:49:41;;;;;;;34.77;18.70;;;;;;;11.17;100.00;101955.06;5089195;28;20800;-71
2021/11/14 03:52:09;;;;;;;34.03;20.03;;;;;;;11.17;100.00;101952.44;5088894;28;20647;-76
2021/11/14 03:54:34;;;;;;;31.63;19.97;;;;;;;11.17;100.00;101955.06;5089451;28;20202;-81
2021/11/14 03:57:00;;;;;;;35.23;21.93;;;;;;;11.16;100.00;101950.75;5088736;28;20567;-80
2021/11/14 03:59:25;;;;;;;36.53;22.83;;;;;;;11.18;100.00;101956.78;5088047;28;20207;-75
2021/11/14 04:01:51;;;;;;;33.23;24.00;;;;;;;11.14;100.00;101962.28;5089461;28;20643;-79
2021/11/14 04:04:16;;;;;;;33.77;22.90;;;;;;;11.10;100.00;101961.56;5087023;28;20171;-82
2021/11/14 04:06:42;;;;;;;39.60;28.20;;;;;;;11.10;100.00;101966.81;5091751;28;20190;-82
2021/11/14 04:09:10;;;;;;;41.50;29.73;;;;;;;11.13;100.00;101963.22;5093165;28;20689;-82
2021/11/14 04:11:36;;;;;;;46.00;28.77;;;;;;;11.10;100.00;101966.81;5091831;28;20187;-70
2021/11/14 04:14:01;;;;;;;49.13;30.10;;;;;;;11.11;100.00;101977.28;5090845;28;20428;-71
2021/11/14 04:16:27;;;;;;;45.23;32.63;;;;;;;11.14;100.00;101967.53;5091590;28;20167;-69
2021/11/14 04:18:52;;;;;;;48.60;32.97;;;;;;;11.14;100.00;101973.66;5091425;28;20175;-74
2021/11/14 04:21:18;;;;;;;49.50;33.33;;;;;;;11.18;100.00;101972.56;5091645;28;20635;-70
2021/11/14 04:23:43;;;;;;;49.33;31.80;;;;;;;11.22;100.00;101979.38;5090685;28;20194;-72
2021/11/14 04:26:09;;;;;;;48.10;32.30;;;;;;;11.26;100.00;101972.19;5091868;28;20163;-79
2021/11/14 04:28:36;;;;;;;44.70;31.80;;;;;;;11.26;100.00;101980.94;5090765;28;20207;-75
2021/11/14 04:31:02;;;;;;;50.93;29.50;;;;;;;11.21;100.00;101977.69;5091265;28;20467;-70
2021/11/14 04:33:28;;;;;;;49.53;33.60;;;;;;;11.17;100.00;101985.78;5092318;28;20398;-74
2021/11/14 04:35:54;;;;;;;57.73;32.70;;;;;;;11.07;100.00;101982.78;5095878;28;20435;-79
2021/11/14 04:38:21;;;;;;;46.30;30.20;;;;;;;11.15;100.00;101975.34;5095745;28;20519;-70
2021/11/14 04:40:47;;;;;;;47.57;32.40;;;;;;;11.20;100.00;101980.41;5096046;28;20610;-80
2021/11/14 04:43:17;;;;;;;45.43;30.50;;;;;;;11.23;100.00;101978.44;5095005;28;20414;-71
2021/11/14 04:45:42;;;;;;;46.50;32.00;;;;;;;11.17;100.00;101984.00;5095719;28;20470;-79
2021/11/14 04:48:08;;;;;;;46.00;31.00;;;;;;;11.15;100.00;101980.63;5095254;28;20524;-69
2021/11/14 04:50:34;;;;;;;47.63;32.57;;;;;;;11.18;100.00;101976.97;5095195;28;20178;-82
2021/11/14 04:53:01;;;;;;;50.73;33.80;;;;;;;11.15;100.00;101982.38;5095533;28;20160;-71
2021/11/14 04:55:27;;;;;;;50.57;33.37;;;;;;;11.16;100.00;101986.72;5094905;28;20426;-70
2021/11/14 04:57:52;;;;;;;56.37;31.57;;;;;;;11.07;100.00;101994.13;5095732;28;20402;-73
2021/11/14 05:00:25;;;;;;;41.37;29.70;;;;;;;11.10;100.00;101988.72;5094628;28;20195;-69
2021/11/14 05:02:51;;;;;;;48.00;30.10;;;;;;;11.06;100.00;101987.19;5095397;28;20194;-69
2021/11/14 05:05:17;;;;;;;49.10;28.93;;;;;;;11.05;100.00;101990.75;5094412;28;20419;-69
2021/11/14 05:07:42;;;;;;;40.83;29.20;;;;;;;11.10;100.00;101999.22;5094840;28;20497;-74
2021/11/14 05:10:08;;;;;;;42.70;27.87;;;;;;;11.05;100.00;101989.88;5095263;28;20213;-70
2021/11/14 05:12:34;;;;;;;39.30;26.70;;;;;;;11.05;100.00;102001.25;5095079;28;20191;-73
2021/11/14 05:15:00;;;;;;;43.87;28.70;;;;;;;11.05;100.00;102009.16;5094758;28;20992;-71
2021/11/14 05:17:25;;;;;;;35.57;25.00;;;;;;;10.96;100.00;102003.50;5095336;28;20256;-81
2021/11/14 05:19:52;;;;;;;43.70;25.77;;;;;;;10.93;100.00;102009.72;5094675;28;20176;-79
2021/11/14 05:22:18;;;;;;;45.87;26.27;;;;;;;10.96;100.00;102011.38;5094521;28;20167;-69
2021/11/14 05:24:44;;;;;;;45.70;27.00;;;;;;;10.98;100.00;102009.53;5095149;28;20406;-77
2021/11/14 05:27:10;;;;;;;42.53;28.30;;;;;;;10.98;100.00;102015.63;5094864;28;20398;-73
2021/11/14 05:29:35;;;;;;;44.50;28.63;;;;;;;10.80;100.00;102012.06;5094019;28;20514;-74
2021/11/14 05:32:02;;;;;;;38.57;21.30;;;;;;;10.84;100.00;102015.44;5094589;28;20213;-75
2021/11/14 05:34:27;;;;;;;34.30;21.47;;;;;;;10.74;100.00;102022.06;5094393;28;20229;-78
2021/11/14 05:36:54;;;;;;;32.10;21.43;;;;;;;10.68;100.00;102022.34;5093520;28;20755;-71
2021/11/14 05:39:19;;;;;;;37.00;20.73;;;;;;;10.66;100.00;102024.19;5094541;28;20163;-76
2021/11/14 05:41:45;;;;;;;31.07;19.00;;;;;;;10.66;100.00;102032.06;5094150;28;20767;-82
2021/11/14 05:44:10;;;;;;;34.70;22.13;;;;;;;10.61;100.00;102032.28;5093378;28;20203;-81
2021/11/14 05:46:36;;;;;;;32.50;21.10;;;;;;;10.61;100.00;102034.06;5103563;28;20668;-82
2021/11/14 05:49:06;;;;;;;38.43;24.20;;;;;;;10.58;100.00;102035.06;5094964;28;20188;-82
2021/11/14 05:51:32;;;;;;;42.97;29.03;;;;;;;10.60;100.00;102034.97;5095184;28;20163;-79
2021/11/14 05:53:58;;;;;;;110.57;63.87;;;;;;;10.57;100.00;102030.69;5095192;28;20425;-81
2021/11/14 05:56:23;;;;;;;116.57;71.90;;;;;;;10.58;100.00;102040.31;5094936;28;20175;-82
2021/11/14 05:59:04;;;;;;;98.73;62.10;;;;;;;10.61;100.00;102041.94;5095036;28;20225;-75
2021/11/14 06:01:35;;;;;;;66.23;44.87;;;;;;;10.65;100.00;102044.34;5093829;28;20271;-80
2021/11/14 06:04:11;;;;;;;73.47;46.90;;;;;;;10.71;100.00;102040.56;5094021;28;20421;-79
2021/11/14 06:06:37;;;;;;;138.13;84.03;;;;;;;10.80;100.00;102042.78;5093295;28;20413;-80
2021/11/14 06:09:03;;;;;;;117.67;69.63;;;;;;;10.95;100.00;102044.69;5094653;28;20817;-76
2021/11/14 06:11:28;;;;;;;139.23;86.20;;;;;;;10.99;100.00;102053.28;5094478;28;20256;-80
2021/11/14 06:13:54;;;;;;;103.70;66.00;;;;;;;11.33;100.00;102048.09;5093480;28;20662;-83
2021/11/14 06:16:20;;;;;;;82.27;50.30;;;;;;;11.48;100.00;102046.50;5094043;28;20163;-82
2021/11/14 06:18:46;;;;;;;39.00;27.90;;;;;;;11.64;100.00;102049.25;5092694;28;20163;-76
2021/11/14 06:21:12;;;;;;;47.07;28.40;;;;;;;11.71;100.00;102044.50;5092957;28;20429;-79
2021/11/14 06:23:37;;;;;;;43.17;29.63;;;;;;;11.73;100.00;102046.16;5093095;28;20459;-72
2021/11/14 06:26:03;;;;;;;37.33;24.83;;;;;;;11.62;100.00;102044.03;5092825;28;20175;-73
2021/11/14 06:28:29;;;;;;;39.23;26.07;;;;;;;11.60;100.00;102047.69;5090864;28;20600;-82
2021/11/14 06:30:55;;;;;;;36.00;22.63;;;;;;;11.64;100.00;102050.09;5091823;28;20627;-79
2021/11/14 06:33:21;;;;;;;38.93;24.40;;;;;;;11.64;100.00;102046.63;5092535;28;20160;-79
2021/11/14 06:35:46;;;;;;;34.37;25.60;;;;;;;11.63;100.00;102045.72;5094159;28;20414;-84
2021/11/14 06:38:12;;;;;;;43.00;25.90;;;;;;;11.55;100.00;102041.78;5094626;28;20163;-84
2021/11/14 06:40:38;;;;;;;39.33;27.40;;;;;;;11.60;100.00;102045.03;5094956;28;20160;-84
2021/11/14 06:43:03;;;;;;;38.90;26.23;;;;;;;11.71;100.00;102044.50;5093564;28;20935;-70
2021/11/14 06:45:29;;;;;;;41.57;26.70;;;;;;;11.76;100.00;102043.34;5092177;28;20168;-81
2021/11/14 06:47:55;;;;;;;41.50;28.47;;;;;;;11.83;100.00;102041.28;5092608;28;20184;-70
2021/11/14 06:50:20;;;;;;;47.30;29.13;;;;;;;11.91;100.00;102039.97;5092636;28;20179;-80
2021/11/14 06:52:46;;;;;;;43.90;28.50;;;;;;;11.93;100.00;102035.44;5107396;28;20167;-68
2021/11/14 06:55:14;;;;;;;48.97;32.60;;;;;;;11.99;100.00;102033.44;5091074;28;20159;-70
2021/11/14 06:57:40;;;;;;;50.83;33.27;;;;;;;12.09;100.00;102042.56;5091683;28;20159;-84
2021/11/14 07:00:08;;;;;;;63.20;39.87;;;;;;;12.13;100.00;102036.22;5093438;28;20413;-86
2021/11/14 07:02:34;;;;;;;64.17;40.37;;;;;;;12.20;100.00;102035.81;5093267;28;20711;-83
2021/11/14 07:05:01;;;;;;;62.40;44.10;;;;;;;12.31;100.00;102034.38;5093253;28;20409;-73
2021/11/14 07:07:26;;;;;;;58.53;40.73;;;;;;;12.35;100.00;102034.16;5092582;28;20736;-78
2021/11/14 07:09:52;;;;;;;66.40;43.33;;;;;;;12.30;100.00;102036.16;5091421;28;20473;-81
2021/11/14 07:12:17;;;;;;;64.87;44.67;;;;;;;12.29;100.00;102031.00;5094511;28;20186;-71
2021/11/14 07:14:43;;;;;;;69.17;46.47;;;;;;;12.29;100.00;102039.75;5091743;28;20159;-69
2021/11/14 07:17:08;;;;;;;61.63;41.60;;;;;;;12.33;100.00;102029.91;5092227;28;20163;-68
2021/11/14 07:19:34;;;;;;;71.60;45.67;;;;;;;12.30;100.00;102030.91;5094532;28;20156;-83
2021/11/14 07:22:00;;;;;;;69.23;47.90;;;;;;;12.37;100.00;102029.63;5091015;28;20612;-71
2021/11/14 07:24:26;;;;;;;73.73;46.10;;;;;;;12.46;100.00;102031.78;5089677;28;20159;-68
2021/11/14 07:26:52;;;;;;;76.20;47.40;;;;;;;12.55;100.00;102032.25;5092393;28;20417;-69
2021/11/14 07:29:17;;;;;;;82.20;53.53;;;;;;;12.56;100.00;102036.56;5092026;28;20285;-71
2021/11/14 07:31:43;;;;;;;67.87;44.77;;;;;;;12.66;100.00;102032.50;5093148;28;20578;-69
2021/11/14 07:34:08;;;;;;;69.87;48.40;;;;;;;12.76;100.00;102029.25;5097220;28;20176;-75
2021/11/14 07:36:35;;;;;;;71.27;46.93;;;;;;;12.80;100.00;102029.94;5084398;28;20160;-87
2021/11/14 07:39:00;;;;;;;69.27;45.33;;;;;;;12.92;100.00;102025.75;5090029;28;20960;-75
2021/11/14 07:41:26;;;;;;;71.13;42.80;;;;;;;13.07;100.00;102019.63;5092500;28;20148;-69
2021/11/14 07:43:51;;;;;;;59.60;41.73;;;;;;;13.11;100.00;102022.97;5093886;28;20152;-86
2021/11/14 07:46:17;;;;;;;68.50;42.83;;;;;;;13.17;100.00;102027.91;5094730;28;20187;-88
2021/11/14 07:48:43;;;;;;;61.40;40.70;;;;;;;13.25;100.00;102030.97;5093307;28;20209;-86
2021/11/14 07:51:10;;;;;;;52.63;35.67;;;;;;;13.47;100.00;102026.16;5094780;28;20426;-84
2021/11/14 07:53:36;;;;;;;45.33;30.07;;;;;;;13.66;100.00;102027.72;5093202;28;20414;-84
2021/11/14 07:56:02;;;;;;;36.97;25.70;;;;;;;13.54;100.00;102021.38;5097583;28;20390;-87
2021/11/14 07:58:29;;;;;;;44.93;25.30;;;;;;;13.53;100.00;102023.16;5092869;28;20171;-68
2021/11/14 08:00:55;;;;;;;36.40;25.27;;;;;;;13.69;100.00;102024.91;5093198;28;20390;-83
2021/11/14 08:03:23;;;;;;;32.87;22.97;;;;;;;14.05;100.00;102020.03;5090821;28;20425;-71
2021/11/14 08:05:49;;;;;;;31.27;22.40;;;;;;;14.25;100.00;102017.97;5091739;28;20550;-68
2021/11/14 08:08:15;;;;;;;28.33;20.23;;;;;;;14.30;100.00;102029.97;5091034;28;20460;-67
2021/11/14 08:10:41;;;;;;;33.03;22.17;;;;;;;14.51;100.00;102026.97;5091094;28;20446;-86
2021/11/14 08:13:08;;;;;;;29.17;19.10;;;;;;;14.57;100.00;102019.50;5092164;28;20159;-68
2021/11/14 08:15:35;;;;;;;31.47;20.60;;;;;;;14.86;100.00;102025.59;5093304;28;20386;-69
2021/11/14 08:18:02;;;;;;;29.40;18.90;;;;;;;14.90;100.00;102019.16;5091638;28;20897;-69
2021/11/14 08:20:27;;;;;;;27.03;18.20;;;;;;;15.09;100.00;102023.25;5091167;28;20424;-83
2021/11/14 08:22:59;;;;;;;24.00;17.37;;;;;;;15.29;100.00;102025.44;5090977;28;20413;-74
2021/11/14 08:25:25;;;;;;;31.20;17.70;;;;;;;15.25;100.00;102016.84;5078837;28;20775;-68
2021/11/14 08:27:50;;;;;;;22.50;14.83;;;;;;;15.14;100.00;102026.47;5075814;28;20437;-66
2021/11/14 08:30:16;;;;;;;22.73;14.13;;;;;;;15.21;100.00;102020.66;5092550;28;20246;-80
2021/11/14 08:32:44;;;;;;;22.50;13.63;;;;;;;15.33;100.00;102023.44;5094100;28;20176;-78
2021/11/14 08:35:10;;;;;;;16.00;9.30;;;;;;;15.51;100.00;102017.78;5080352;28;20498;-70
2021/11/14 08:37:36;;;;;;;24.00;14.73;;;;;;;15.44;100.00;102018.28;5091066;28;20445;-67
2021/11/14 08:40:04;;;;;;;28.87;16.70;;;;;;;15.34;100.00;102022.47;5093055;28;20800;-68
2021/11/14 08:42:29;;;;;;;18.57;13.30;;;;;;;15.44;100.00;102023.59;5091768;28;20521;-84
2021/11/14 08:44:55;;;;;;;19.27;13.30;;;;;;;15.53;100.00;102015.03;5098150;28;20426;-87
2021/11/14 08:47:20;;;;;;;17.50;11.00;;;;;;;15.85;100.00;102019.97;5097716;28;20168;-86
2021/11/14 08:49:46;;;;;;;15.70;9.30;;;;;;;15.87;100.00;102018.06;5094675;28;20176;-87
2021/11/14 08:52:12;;;;;;;15.97;10.83;;;;;;;16.00;100.00;102018.91;5096687;28;20259;-81
2021/11/14 08:54:37;;;;;;;16.10;11.03;;;;;;;16.25;100.00;102010.97;5094517;28;20251;-87
2021/11/14 08:57:04;;;;;;;15.60;8.93;;;;;;;16.42;100.00;102009.78;5092082;28;20453;-82
2021/11/14 08:59:31;;;;;;;15.17;8.40;;;;;;;16.38;100.00;102013.59;5090430;28;20328;-85
2021/11/14 09:02:00;;;;;;;12.67;8.60;;;;;;;16.07;100.00;102015.72;5091019;28;20398;-70
2021/11/14 09:04:26;;;;;;;14.07;9.07;;;;;;;16.21;100.00;102012.13;5089594;28;20414;-77
2021/11/14 09:06:54;;;;;;;14.03;7.50;;;;;;;16.19;100.00;102008.75;5089687;28;20526;-67
2021/11/14 09:09:21;;;;;;;15.53;9.07;;;;;;;16.23;100.00;102012.00;5088518;28;20473;-85
2021/11/14 09:11:46;;;;;;;12.90;7.37;;;;;;;16.41;100.00;102002.78;5089830;28;20437;-68
2021/11/14 09:14:13;;;;;;;9.73;6.23;;;;;;;16.96;100.00;102000.63;5100070;28;20808;-69
2021/11/14 09:16:39;;;;;;;9.37;5.53;;;;;;;18.08;100.00;101993.84;5110098;28;20619;-68
2021/11/14 09:19:06;;;;;;;10.63;7.07;;;;;;;18.52;100.00;101976.19;5088492;28;20394;-70
2021/11/14 09:21:33;;;;;;;9.07;6.67;;;;;;;18.76;100.00;101979.53;5085902;28;20655;-72
2021/11/14 09:23:59;;;;;;;15.00;11.07;;;;;;;18.80;100.00;101980.13;5076760;28;20421;-66
2021/11/14 09:26:24;;;;;;;13.67;7.73;;;;;;;19.41;100.00;101972.34;5093903;28;20410;-64
2021/11/14 09:28:50;;;;;;;10.20;7.10;;;;;;;19.53;100.00;101970.50;5092856;28;20215;-64
2021/11/14 09:31:16;;;;;;;11.73;6.90;;;;;;;19.75;100.00;101972.22;5093391;28;20171;-65
2021/11/14 09:33:44;;;;;;;11.27;7.10;;;;;;;19.76;100.00;101976.56;5097727;28;20590;-66
2021/11/14 09:36:09;;;;;;;14.73;8.80;;;;;;;19.48;100.00;101973.53;5090679;28;20168;-64
2021/11/14 09:38:36;;;;;;;12.53;7.10;;;;;;;19.10;100.00;101969.59;5092741;28;20433;-65
2021/11/14 09:41:08;;;;;;;15.10;7.10;;;;;;;19.13;100.00;101965.84;5092023;28;20168;-65
2021/11/14 09:43:35;;;;;;;10.83;6.90;;;;;;;18.81;100.00;101966.66;5092534;28;20443;-65
2021/11/14 09:46:01;;;;;;;13.50;8.00;;;;;;;18.99;100.00;101967.00;5073289;28;20401;-65
2021/11/14 09:48:28;;;;;;;12.20;7.47;;;;;;;19.03;100.00;101960.41;5090072;28;20449;-64
2021/11/14 09:50:55;;;;;;;9.70;5.80;;;;;;;18.65;100.00;101968.88;5093029;28;20494;-63
2021/11/14 09:53:35;;;;;;;11.10;6.83;;;;;;;19.42;100.00;101960.72;5092606;28;20956;-67
2021/11/14 09:56:04;;;;;;;12.73;6.50;;;;;;;20.31;100.00;101953.06;5092492;28;20420;-66
2021/11/14 09:58:30;;;;;;;8.43;6.43;;;;;;;20.30;100.00;101940.69;5092591;28;20422;-66
2021/11/14 10:00:56;;;;;;;8.17;4.90;;;;;;;20.91;100.00;101951.22;5090390;28;20413;-66
2021/11/14 10:03:22;;;;;;;8.67;5.67;;;;;;;19.95;100.00;101944.66;5093096;28;20178;-62
2021/11/14 10:05:49;;;;;;;8.37;5.50;;;;;;;20.68;100.00;101946.16;5091722;28;20409;-67
2021/11/14 10:08:16;;;;;;;14.30;6.47;;;;;;;20.96;100.00;101940.97;5091404;28;20551;-64
2021/11/14 10:10:54;;;;;;;7.53;4.90;;;;;;;20.82;100.00;101942.22;5092033;28;20405;-68
2021/11/14 10:13:22;;;;;;;9.40;5.33;;;;;;;20.80;100.00;101941.53;5092203;28;20504;-64
2021/11/14 10:16:03;;;;;;;15.43;5.33;;;;;;;21.12;100.00;101938.56;5093123;28;20925;-64
2021/11/14 10:18:29;;;;;;;13.07;5.87;;;;;;;21.06;100.00;101931.97;5092467;28;20451;-63
2021/11/14 10:20:57;;;;;;;9.47;6.13;;;;;;;20.20;100.00;101932.66;5092770;28;20876;-66
2021/11/14 10:23:23;;;;;;;10.90;5.90;;;;;;;19.86;100.00;101935.59;5092761;28;20439;-65
2021/11/14 10:25:50;;;;;;;12.73;5.90;;;;;;;19.26;100.00;101931.00;5092628;28;20410;-66
2021/11/14 10:28:16;;;;;;;15.90;6.83;;;;;;;18.61;100.00;101938.16;5091574;28;20187;-66
2021/11/14 10:30:45;;;;;;;8.70;5.90;;;;;;;18.03;100.00;101934.84;5094976;28;20849;-65
2021/11/14 10:33:16;;;;;;;9.87;5.10;;;;;;;17.54;100.00;101929.84;5092472;28;20390;-67
2021/11/14 10:35:44;;;;;;;8.90;4.97;;;;;;;17.08;100.00;101938.66;5087832;28;20513;-66
2021/11/14 10:38:14;;;;;;;9.07;5.40;;;;;;;16.60;100.00;101941.25;5091369;28;20419;-64
2021/11/14 10:40:44;;;;;;;9.67;6.07;;;;;;;16.68;100.00;101938.88;5091772;28;20486;-64
2021/11/14 10:43:09;;;;;;;8.53;5.70;;;;;;;16.56;100.00;101935.34;5092090;28;20470;-66
2021/11/14 10:45:38;;;;;;;10.57;6.10;;;;;;;16.50;100.00;101932.28;5090409;28;20418;-67
2021/11/14 10:48:16;;;;;;;9.07;5.47;;;;;;;16.47;100.00;101932.47;5091054;28;20286;-64
2021/11/14 10:50:50;;;;;;;48.70;9.83;;;;;;;16.39;100.00;101927.72;5086192;28;20478;-67
2021/11/14 10:53:18;;;;;;;12.23;6.17;;;;;;;16.50;100.00;101926.97;5091570;28;20409;-68
2021/11/14 10:55:52;;;;;;;10.83;6.47;;;;;;;16.90;100.00;101928.41;5090899;28;20442;-65
2021/11/14 10:58:20;;;;;;;9.30;5.70;;;;;;;17.11;100.00;101925.97;5091489;28;20410;-66
2021/11/14 11:00:48;;;;;;;8.17;5.90;;;;;;;17.20;100.00;101916.44;5091864;28;20456;-65
2021/11/14 11:03:13;;;;;;;8.47;5.70;;;;;;;17.16;100.00;101915.00;5091365;28;20481;-66